Time;durP1;ratioP1;P1;durP2;ratioP2;P2;SDS_P1;SDS_P2;PMS_P1;PMS_P2;Temp;Humidity;BMP_temperature;BMP_pressure;BME280_temperature;BME280_humidity;BME280_pressure;Samples;Min_cycle;Max_cycle;Signal;HPM_P1;HPM_P2
2022/02/04 00:09:56;;;;;;;;;;;;;;;;;;5060854;28;20553;-71
2022/02/04 00:23:04;;;;;;;;;;;;;;;;;;5058886;28;20349;-70
2022/02/04 00:28:06;;;;;;;;;;;;;;;;;;5059490;28;20779;-71
2022/02/04 00:30:37;;;;;;;;;;;;;;;;;;5059873;28;20234;-71
2022/02/04 00:33:04;;;;;;;;;;;;;;;;;;5060364;28;20392;-71
2022/02/04 00:35:44;;;;;;;;;;;;;;;;;;5059841;28;20080;-71
2022/02/04 00:38:22;;;;;;;;;;;;;;;;;;5059500;28;20379;-70
2022/02/04 00:40:51;;;;;;;;;;;;;;;;;;5060746;28;20387;-71
2022/02/04 00:43:18;;;;;;;;;;;;;;;;;;5059740;28;20129;-70
2022/02/04 00:51:02;;;;;;;;;;;;;;;;;;5057492;28;20442;-71
2022/02/04 00:53:49;;;;;;;;;;;;;;;;;;5060099;28;19944;-71
2022/02/04 01:28:41;;;;;;;;;;;;;;;;;;5006095;28;20017;-70
2022/02/04 01:31:06;;;;;;;;;;;;;;;;;;5009312;28;20029;-70
2022/02/04 01:33:32;;;;;;;;;;;;;;;;;;5004505;28;19917;-68
2022/02/04 01:35:57;;;;;;;;;;;;;;;;;;5008030;28;19913;-68
2022/02/04 01:38:22;;;;;;;;;;;;;;;;;;5009756;28;20150;-70
2022/02/04 01:40:47;;;;;;;;;;;;;;;;;;5005443;28;20275;-70
2022/02/04 01:43:13;;;;;;;;;;;;;;;;;;5004819;28;19917;-70
2022/02/04 01:45:38;;;;;;;;;;;;;;;;;;5003385;28;19913;-70
2022/02/04 01:48:03;;;;;;;;;;;;;;;;;;5007126;28;19917;-70
2022/02/04 01:50:28;;;;;;;;;;;;;;;;;;5006686;28;19917;-70
2022/02/04 01:52:53;;;;;;;;;;;;;;;;;;5006282;28;19913;-70
2022/02/04 01:55:18;;;;;;;;;;;;;;;;;;5005314;28;19913;-70
2022/02/04 01:57:43;;;;;;;;;;;;;;;;;;5001483;28;19924;-70
2022/02/04 02:00:08;;;;;;;;;;;;;;;;;;5003124;28;19967;-70
2022/02/04 02:02:33;;;;;;;;;;;;;;;;;;5027245;28;19916;-70
2022/02/04 02:04:59;;;;;;;;;;;;;;;;;;5053547;28;20015;-70
2022/02/04 02:07:26;;;;;;;;;;;;;;;;;;5054674;28;19960;-70
2022/02/04 02:12:18;;;;;;;;;;;;;;;;;;5054709;28;19916;-70
2022/02/04 02:14:44;;;;;;;;;;;;;;;;;;5057984;28;19917;-70
2022/02/04 02:44:22;;;;;;;;;;;;;;;;;;4994077;28;20396;-70
2022/02/04 02:57:09;;;;;;;;;;;;;;;;;;4956568;28;20193;-69
2022/02/04 03:00:01;;;;;;;;;;;;;;;;;;4956651;28;20632;-69
2022/02/04 03:02:20;;;;;;;;;;;;;;;;;;4955188;28;20070;-69
2022/02/04 03:04:45;;;;;;;;;;;;;;;;;;4955472;28;20032;-71
2022/02/04 03:07:10;;;;;;;;;;;;;;;;;;4956621;28;20017;-67
2022/02/04 03:09:36;;;;;;;;;;;;;;;;;;4969812;28;20020;-68
2022/02/04 03:12:01;;;;;;;;;;;;;;;;;;4972034;28;20009;-68
2022/02/04 03:14:27;;;;;;;;;;;;;;;;;;4972435;28;20347;-68
2022/02/04 03:16:53;;;;;;;;;;;;;;;;;;4975729;28;20133;-68
2022/02/04 03:19:22;;;;;;;;;;;;;;;;;;4973213;28;19914;-67
2022/02/04 03:21:48;;;;;;;;;;;;;;;;;;4974630;28;20223;-68
2022/02/04 03:24:18;;;;;;;;;;;;;;;;;;4972614;28;19967;-68
2022/02/04 03:26:50;;;;;;;;;;;;;;;;;;5018001;28;20034;-68
2022/02/04 03:29:18;;;;;;;;;;;;;;;;;;5057544;28;19931;-68
2022/02/04 03:31:48;;;;;;;;;;;;;;;;;;5057034;28;19920;-68
2022/02/04 03:34:14;;;;;;;;;;;;;;;;;;5055206;28;20311;-68
2022/02/04 03:36:39;;;;;;;;;;;;;;;;;;5057676;28;19916;-69
2022/02/04 03:39:04;;;;;;;;;;;;;;;;;;5056295;28;19916;-69
2022/02/04 03:41:29;;;;;;;;;;;;;;;;;;5062945;28;19997;-69
2022/02/04 03:43:54;;;;;;;;;;;;;;;;;;5064586;28;20344;-69
2022/02/04 03:46:19;;;;;;;;;;;;;;;;;;5060231;28;19919;-69
2022/02/04 03:48:44;;;;;;;;;;;;;;;;;;5062535;28;20186;-69
2022/02/04 03:51:10;;;;;;;;;;;;;;;;;;5063818;28;20054;-69
2022/02/04 03:53:35;;;;;;;;;;;;;;;;;;5062434;28;20312;-69
2022/02/04 03:56:00;;;;;;;;;;;;;;;;;;5060515;28;20291;-69
2022/02/04 03:58:25;;;;;;;;;;;;;;;;;;5060219;28;19990;-69
2022/02/04 04:00:50;;;;;;;;;;;;;;;;;;5057442;28;19920;-69
2022/02/04 04:03:15;;;;;;;;;;;;;;;;;;5056758;28;19920;-69
2022/02/04 04:05:47;;;;;;;;;;;;;;;;;;5067172;28;19917;-69
2022/02/04 04:08:14;;;;;;;;;;;;;;;;;;5060379;28;20465;-69
2022/02/04 04:10:41;;;;;;;;;;;;;;;;;;5060919;28;19963;-69
2022/02/04 04:13:06;;;;;;;;;;;;;;;;;;5059751;28;20243;-69
2022/02/04 04:15:31;;;;;;;;;;;;;;;;;;5057574;28;20400;-69
2022/02/04 04:17:57;;;;;;;;;;;;;;;;;;5060687;28;20102;-69
2022/02/04 04:20:22;;;;;;;;;;;;;;;;;;5060133;28;19912;-69
2022/02/04 04:22:47;;;;;;;;;;;;;;;;;;5057873;28;19917;-69
2022/02/04 04:25:12;;;;;;;;;;;;;;;;;;5061541;28;19927;-69
2022/02/04 04:27:40;;;;;;;;;;;;;;;;;;5059813;28;19924;-69
2022/02/04 04:30:05;;;;;;;;;;;;;;;;;;5059302;28;20334;-69
2022/02/04 04:32:30;;;;;;;;;;;;;;;;;;5060515;28;20392;-69
2022/02/04 04:34:55;;;;;;;;;;;;;;;;;;5059681;28;20447;-69
2022/02/04 04:37:21;;;;;;;;;;;;;;;;;;5059187;28;19959;-69
2022/02/04 04:42:31;;;;;;;;;;;;;;;;;;5059329;28;19923;-69
2022/02/04 04:45:37;;;;;;;;;;;;;;;;;;5057150;28;19916;-69
2022/02/04 05:31:16;;;;;;;;;;;;;;;;;;5062373;28;19990;-69
2022/02/04 05:33:41;;;;;;;;;;;;;;;;;;5058187;28;20336;-69
2022/02/04 05:36:08;;;;;;;;;;;;;;;;;;5060550;28;20635;-69
2022/02/04 05:38:34;;;;;;;;;;;;;;;;;;5060103;28;19912;-69
2022/02/04 05:41:00;;;;;;;;;;;;;;;;;;5058660;28;19920;-70
2022/02/04 05:43:29;;;;;;;;;;;;;;;;;;5059711;28;20396;-69
2022/02/04 05:46:14;;;;;;;;;;;;;;;;;;5057007;28;20295;-70
2022/02/04 05:48:46;;;;;;;;;;;;;;;;;;5054587;28;19927;-70
2022/02/04 05:54:07;;;;;;;;;;;;;;;;;;5059682;28;19967;-70
2022/02/04 05:57:03;;;;;;;;;;;;;;;;;;5057580;28;19917;-69
2022/02/04 06:04:32;;;;;;;;;;;;;;;;;;5055833;28;20123;-70
2022/02/04 06:22:35;;;;;;;;;;;;;;;;;;5052312;28;19920;-68
2022/02/04 06:25:00;;;;;;;;;;;;;;;;;;5056979;28;19928;-68
2022/02/04 06:27:25;;;;;;;;;;;;;;;;;;5057690;28;19912;-68
2022/02/04 06:29:51;;;;;;;;;;;;;;;;;;5058036;28;20026;-68
2022/02/04 06:32:16;;;;;;;;;;;;;;;;;;5057857;28;20469;-68
2022/02/04 06:34:42;;;;;;;;;;;;;;;;;;5058338;28;19962;-68
2022/02/04 06:37:07;;;;;;;;;;;;;;;;;;5057587;28;19916;-68
2022/02/04 06:39:32;;;;;;;;;;;;;;;;;;5056563;28;19916;-68
2022/02/04 06:41:57;;;;;;;;;;;;;;;;;;5057705;28;19931;-68
2022/02/04 06:44:22;;;;;;;;;;;;;;;;;;5054505;28;19975;-68
2022/02/04 06:46:47;;;;;;;;;;;;;;;;;;5054615;28;19969;-68
2022/02/04 06:49:12;;;;;;;;;;;;;;;;;;5055018;28;20097;-68
2022/02/04 06:51:37;;;;;;;;;;;;;;;;;;5057603;28;19908;-68
2022/02/04 06:54:03;;;;;;;;;;;;;;;;;;5050559;28;19937;-68
2022/02/04 06:56:32;;;;;;;;;;;;;;;;;;5051082;28;19969;-70
2022/02/04 06:58:57;;;;;;;;;;;;;;;;;;5051907;28;20519;-68
2022/02/04 07:01:23;;;;;;;;;;;;;;;;;;5050665;28;20063;-68
2022/02/04 07:03:48;;;;;;;;;;;;;;;;;;5050903;28;20294;-68
2022/02/04 07:06:16;;;;;;;;;;;;;;;;;;5050003;28;19916;-69
2022/02/04 07:13:59;;;;;;;;;;;;;;;;;;5054919;28;20003;-68
2022/02/04 07:16:37;;;;;;;;;;;;;;;;;;5055427;28;19955;-68
2022/02/04 07:21:46;;;;;;;;;;;;;;;;;;5053528;28;20200;-68
2022/02/04 07:24:11;;;;;;;;;;;;;;;;;;5050872;28;20799;-68
2022/02/04 07:26:36;;;;;;;;;;;;;;;;;;5049133;28;20669;-68
2022/02/04 07:29:01;;;;;;;;;;;;;;;;;;5049817;28;20414;-68
2022/02/04 07:31:30;;;;;;;;;;;;;;;;;;5052328;28;19920;-68
2022/02/04 07:34:11;;;;;;;;;;;;;;;;;;5056680;28;19942;-68
2022/02/04 07:41:46;;;;;;;;;;;;;;;;;;5058033;28;20058;-68
2022/02/04 07:44:11;;;;;;;;;;;;;;;;;;5057398;28;19952;-68
2022/02/04 07:46:36;;;;;;;;;;;;;;;;;;5057362;28;20367;-68
2022/02/04 07:49:02;;;;;;;;;;;;;;;;;;5057618;28;19939;-68
2022/02/04 07:51:27;;;;;;;;;;;;;;;;;;5057757;28;19973;-68
2022/02/04 07:53:52;;;;;;;;;;;;;;;;;;5055440;28;19922;-68
2022/02/04 07:56:21;;;;;;;;;;;;;;;;;;5056114;28;19918;-68
2022/02/04 07:58:55;;;;;;;;;;;;;;;;;;5057882;28;19976;-68
2022/02/04 08:01:24;;;;;;;;;;;;;;;;;;5055336;28;19938;-68
2022/02/04 08:03:56;;;;;;;;;;;;;;;;;;5057408;28;20108;-68
2022/02/04 08:06:23;;;;;;;;;;;;;;;;;;5054838;28;20369;-68
2022/02/04 08:11:26;;;;;;;;;;;;;;;;;;5060499;28;19923;-68
2022/02/04 08:19:27;;;;;;;;;;;;;;;;;;5065540;28;20069;-68
2022/02/04 08:54:14;;;;;;;;;;;;;;;;;;5058354;28;19927;-67
2022/02/04 08:59:24;;;;;;;;;;;;;;;;;;5058887;28;19923;-67
2022/02/04 09:01:57;;;;;;;;;;;;;;;;;;5053294;28;20184;-67
2022/02/04 09:04:31;;;;;;;;;;;;;;;;;;5056798;28;19920;-67
2022/02/04 09:07:02;;;;;;;;;;;;;;;;;;5055241;28;20483;-67
2022/02/04 09:09:42;;;;;;;;;;;;;;;;;;5059592;28;19943;-68
2022/02/04 09:12:22;;;;;;;;;;;;;;;;;;5059389;28;19912;-68
2022/02/04 09:18:02;;;;;;;;;;;;;;;;;;5059563;28;19985;-68
2022/02/04 09:22:54;;;;;;;;;;;;;;;;;;5059536;28;20203;-69
2022/02/04 09:25:19;;;;;;;;;;;;;;;;;;5059635;28;19920;-69
2022/02/04 09:27:44;;;;;;;;;;;;;;;;;;5057361;28;20007;-69
2022/02/04 09:30:09;;;;;;;;;;;;;;;;;;5058958;28;20061;-69
2022/02/04 09:32:38;;;;;;;;;;;;;;;;;;5059695;28;19986;-69
2022/02/04 09:35:04;;;;;;;;;;;;;;;;;;5059172;28;20131;-69
2022/02/04 09:37:29;;;;;;;;;;;;;;;;;;5057043;28;20440;-69
2022/02/04 09:39:54;;;;;;;;;;;;;;;;;;5058613;28;19909;-69
2022/02/04 09:42:19;;;;;;;;;;;;;;;;;;5059210;28;19916;-69
2022/02/04 09:44:44;;;;;;;;;;;;;;;;;;5057949;28;19913;-69
2022/02/04 09:47:09;;;;;;;;;;;;;;;;;;5056779;28;20119;-69
2022/02/04 09:49:40;;;;;;;;;;;;;;;;;;5056975;28;19916;-69
2022/02/04 10:08:26;;;;;;;;;;;;;;;;;;5058287;28;19923;-69
2022/02/04 10:11:43;;;;;;;;;;;;;;;;;;5057819;28;20060;-69
2022/02/04 10:13:53;;;;;;;;;;;;;;;;;;5058680;28;19916;-69
2022/02/04 10:18:59;;;;;;;;;;;;;;;;;;5065049;28;19913;-69
2022/02/04 10:21:24;;;;;;;;;;;;;;;;;;5056239;28;20144;-69
2022/02/04 10:23:49;;;;;;;;;;;;;;;;;;5057287;28;19916;-69
2022/02/04 10:26:14;;;;;;;;;;;;;;;;;;5058643;28;20323;-69
2022/02/04 10:28:40;;;;;;;;;;;;;;;;;;5058826;28;20342;-69
2022/02/04 10:31:05;;;;;;;;;;;;;;;;;;5057143;28;19927;-69
2022/02/04 10:33:30;;;;;;;;;;;;;;;;;;5057550;28;20001;-69
2022/02/04 10:35:57;;;;;;;;;;;;;;;;;;5057945;28;19924;-69
2022/02/04 10:38:27;;;;;;;;;;;;;;;;;;5057226;28;19955;-69
2022/02/04 10:44:16;;;;;;;;;;;;;;;;;;4989032;28;20299;-69
2022/02/04 10:46:46;;;;;;;;;;;;;;;;;;4968119;28;20163;-69
2022/02/04 10:49:42;;;;;;;;;;;;;;;;;;4979605;28;20004;-69
2022/02/04 11:02:53;;;;;;;;;;;;;;;;;;4986150;28;20118;-69
2022/02/04 11:05:25;;;;;;;;;;;;;;;;;;4981881;28;19925;-69
2022/02/04 11:10:52;;;;;;;;;;;;;;;;;;4982501;28;20069;-69
2022/02/04 11:22:10;;;;;;;;;;;;;;;;;;5057334;28;19923;-68
2022/02/04 11:52:04;;;;;;;;;;;;;;;;;;4959680;28;19914;-68
2022/02/04 11:54:30;;;;;;;;;;;;;;;;;;4959777;28;19929;-68
2022/02/04 11:56:56;;;;;;;;;;;;;;;;;;4960754;28;20314;-68
2022/02/04 11:59:21;;;;;;;;;;;;;;;;;;4961680;28;19910;-68
2022/02/04 12:01:46;;;;;;;;;;;;;;;;;;4958712;28;19914;-68
2022/02/04 12:04:11;;;;;;;;;;;;;;;;;;4957984;28;20318;-68
2022/02/04 12:06:40;;;;;;;;;;;;;;;;;;4959324;28;19918;-68
2022/02/04 12:09:05;;;;;;;;;;;;;;;;;;4957542;28;20121;-68
2022/02/04 12:11:30;;;;;;;;;;;;;;;;;;4947692;28;20164;-68
2022/02/04 12:13:55;;;;;;;;;;;;;;;;;;4949596;28;19961;-68
2022/02/04 12:16:20;;;;;;;;;;;;;;;;;;4948043;28;20001;-68
2022/02/04 12:18:48;;;;;;;;;;;;;;;;;;4955189;28;20167;-68
2022/02/04 12:21:13;;;;;;;;;;;;;;;;;;4957730;28;20477;-68
2022/02/04 12:23:43;;;;;;;;;;;;;;;;;;4956417;28;19962;-68
2022/02/04 12:26:08;;;;;;;;;;;;;;;;;;4955651;28;19922;-68
2022/02/04 12:28:33;;;;;;;;;;;;;;;;;;5014665;28;19923;-68
2022/02/04 12:30:58;;;;;;;;;;;;;;;;;;5057491;28;20015;-68
2022/02/04 12:33:24;;;;;;;;;;;;;;;;;;5057650;28;20341;-68
2022/02/04 12:35:49;;;;;;;;;;;;;;;;;;5057173;28;19920;-68
2022/02/04 12:38:14;;;;;;;;;;;;;;;;;;5056465;28;19945;-68
2022/02/04 12:40:39;;;;;;;;;;;;;;;;;;5053225;28;19923;-68
2022/02/04 12:43:04;;;;;;;;;;;;;;;;;;5056314;28;19922;-68
2022/02/04 12:45:29;;;;;;;;;;;;;;;;;;5053104;28;19916;-68
2022/02/04 12:47:54;;;;;;;;;;;;;;;;;;5055649;28;19927;-68
2022/02/04 12:50:19;;;;;;;;;;;;;;;;;;5045502;28;19921;-68
2022/02/04 12:52:46;;;;;;;;;;;;;;;;;;5056530;28;20007;-68
2022/02/04 12:55:24;;;;;;;;;;;;;;;;;;5053115;28;19916;-68
2022/02/04 12:58:10;;;;;;;;;;;;;;;;;;5053020;28;19932;-67
2022/02/04 13:03:19;;;;;;;;;;;;;;;;;;5053987;28;19977;-67
2022/02/04 13:11:15;;;;;;;;;;;;;;;;;;5052479;28;20544;-68
2022/02/04 13:16:08;;;;;;;;;;;;;;;;;;5057270;28;20027;-68
2022/02/04 13:18:33;;;;;;;;;;;;;;;;;;5052206;28;20362;-68
2022/02/04 13:20:58;;;;;;;;;;;;;;;;;;5051600;28;19927;-68
2022/02/04 13:23:23;;;;;;;;;;;;;;;;;;5054706;28;20161;-67
2022/02/04 13:25:48;;;;;;;;;;;;;;;;;;5052624;28;19916;-68
2022/02/04 13:28:14;;;;;;;;;;;;;;;;;;5051108;28;20197;-68
2022/02/04 13:30:40;;;;;;;;;;;;;;;;;;5050056;28;19920;-68
2022/02/04 13:33:05;;;;;;;;;;;;;;;;;;5058160;28;19961;-68
2022/02/04 13:35:37;;;;;;;;;;;;;;;;;;5056886;28;19916;-68
2022/02/04 13:38:05;;;;;;;;;;;;;;;;;;5056214;28;19917;-68
2022/02/04 13:40:34;;;;;;;;;;;;;;;;;;5056657;28;19916;-69
2022/02/04 13:43:05;;;;;;;;;;;;;;;;;;5056313;28;19924;-68
2022/02/04 13:45:38;;;;;;;;;;;;;;;;;;5056497;28;19952;-69
2022/02/04 13:48:11;;;;;;;;;;;;;;;;;;5056155;28;19920;-68
2022/02/04 13:50:50;;;;;;;;;;;;;;;;;;5055883;28;19925;-69
2022/02/04 13:53:31;;;;;;;;;;;;;;;;;;5052451;28;19950;-69
2022/02/04 13:56:13;;;;;;;;;;;;;;;;;;5056126;28;20050;-69
2022/02/04 13:58:47;;;;;;;;;;;;;;;;;;5056666;28;20435;-69
2022/02/04 14:03:47;;;;;;;;;;;;;;;;;;5052866;28;19986;-69
2022/02/04 14:06:26;;;;;;;;;;;;;;;;;;5050731;28;20424;-68
2022/02/04 14:08:55;;;;;;;;;;;;;;;;;;5049444;28;19990;-68
2022/02/04 14:11:20;;;;;;;;;;;;;;;;;;5052831;28;20385;-69
2022/02/04 14:13:45;;;;;;;;;;;;;;;;;;5050768;28;19920;-68
2022/02/04 14:16:11;;;;;;;;;;;;;;;;;;5047832;28;19959;-70
2022/02/04 14:18:36;;;;;;;;;;;;;;;;;;5047266;28;20501;-69
2022/02/04 14:21:01;;;;;;;;;;;;;;;;;;5047984;28;19921;-69
2022/02/04 14:23:26;;;;;;;;;;;;;;;;;;5048253;28;19932;-69
2022/02/04 14:26:02;;;;;;;;;;;;;;;;;;5052520;28;19916;-68
2022/02/04 14:28:53;;;;;;;;;;;;;;;;;;5055630;28;20572;-68
2022/02/04 14:31:19;;;;;;;;;;;;;;;;;;5050258;28;20285;-68
2022/02/04 14:36:35;;;;;;;;;;;;;;;;;;5047003;28;19982;-69
2022/02/04 15:03:12;;;;;;;;;;;;;;;;;;5049073;28;19919;-69
2022/02/04 15:05:49;;;;;;;;;;;;;;;;;;5054316;28;19981;-69
2022/02/04 15:08:20;;;;;;;;;;;;;;;;;;5053012;28;20255;-69
2022/02/04 15:10:47;;;;;;;;;;;;;;;;;;5055541;28;19929;-69
2022/02/04 15:13:15;;;;;;;;;;;;;;;;;;5056162;28;19920;-69
2022/02/04 15:15:40;;;;;;;;;;;;;;;;;;5059261;28;19954;-69
2022/02/04 15:18:05;;;;;;;;;;;;;;;;;;5064222;28;19912;-69
2022/02/04 15:20:30;;;;;;;;;;;;;;;;;;5059459;28;19952;-68
2022/02/04 15:22:56;;;;;;;;;;;;;;;;;;5058195;28;19925;-67
2022/02/04 15:25:22;;;;;;;;;;;;;;;;;;5057437;28;19916;-67
2022/02/04 15:30:37;;;;;;;;;;;;;;;;;;5004940;28;19932;-68
2022/02/04 15:33:02;;;;;;;;;;;;;;;;;;5005927;28;19917;-67
2022/02/04 15:35:29;;;;;;;;;;;;;;;;;;5005013;28;19981;-68
2022/02/04 15:37:54;;;;;;;;;;;;;;;;;;5005062;28;19952;-68
2022/02/04 15:40:19;;;;;;;;;;;;;;;;;;5000692;28;19925;-68
2022/02/04 15:42:53;;;;;;;;;;;;;;;;;;4999569;28;19968;-68
2022/02/04 15:48:16;;;;;;;;;;;;;;;;;;4999271;28;20461;-68
2022/02/04 15:56:14;;;;;;;;;;;;;;;;;;4995988;28;20211;-68
2022/02/04 15:59:10;;;;;;;;;;;;;;;;;;5001880;28;19913;-68
2022/02/04 16:01:44;;;;;;;;;;;;;;;;;;4997931;28;19918;-68
2022/02/04 16:06:37;;;;;;;;;;;;;;;;;;4984214;28;20446;-68
2022/02/04 16:09:03;;;;;;;;;;;;;;;;;;5018335;28;20494;-68
2022/02/04 16:14:06;;;;;;;;;;;;;;;;;;5017940;28;20369;-68
2022/02/04 16:16:37;;;;;;;;;;;;;;;;;;5018867;28;20397;-68
2022/02/04 16:19:10;;;;;;;;;;;;;;;;;;5026488;28;20152;-69
2022/02/04 16:22:03;;;;;;;;;;;;;;;;;;5017927;28;20156;-69
2022/02/04 16:29:37;;;;;;;;;;;;;;;;;;5017436;28;19951;-69
2022/02/04 16:32:02;;;;;;;;;;;;;;;;;;5016517;28;19917;-68
2022/02/04 16:34:29;;;;;;;;;;;;;;;;;;5016599;28;19956;-68
2022/02/04 16:36:56;;;;;;;;;;;;;;;;;;5017562;28;20085;-68
2022/02/04 16:39:23;;;;;;;;;;;;;;;;;;5017040;28;19921;-68
2022/02/04 16:42:01;;;;;;;;;;;;;;;;;;5017963;28;19913;-69
2022/02/04 16:44:26;;;;;;;;;;;;;;;;;;5017263;28;20165;-68
2022/02/04 16:46:51;;;;;;;;;;;;;;;;;;5018186;28;19974;-68
2022/02/04 16:49:17;;;;;;;;;;;;;;;;;;5017685;28;20003;-69
2022/02/04 16:51:42;;;;;;;;;;;;;;;;;;5018445;28;20393;-69
2022/02/04 16:54:07;;;;;;;;;;;;;;;;;;5015968;28;19917;-69
2022/02/04 16:56:32;;;;;;;;;;;;;;;;;;5016483;28;20766;-69
2022/02/04 16:58:59;;;;;;;;;;;;;;;;;;5016908;28;20290;-69
2022/02/04 17:01:24;;;;;;;;;;;;;;;;;;5016930;28;19959;-69
2022/02/04 17:03:49;;;;;;;;;;;;;;;;;;5025809;28;19960;-69
2022/02/04 17:06:15;;;;;;;;;;;;;;;;;;5057311;28;19921;-69
2022/02/04 17:08:48;;;;;;;;;;;;;;;;;;5057204;28;19970;-69
2022/02/04 17:11:16;;;;;;;;;;;;;;;;;;5057322;28;20348;-69
2022/02/04 17:13:41;;;;;;;;;;;;;;;;;;5056261;28;20385;-69
2022/02/04 17:16:06;;;;;;;;;;;;;;;;;;5056660;28;19917;-69
2022/02/04 17:18:31;;;;;;;;;;;;;;;;;;5056430;28;19916;-69
2022/02/04 17:20:56;;;;;;;;;;;;;;;;;;5057427;28;19934;-69
2022/02/04 17:23:41;;;;;;;;;;;;;;;;;;5056416;28;20422;-69
2022/02/04 17:26:06;;;;;;;;;;;;;;;;;;5056270;28;19924;-69
2022/02/04 17:28:31;;;;;;;;;;;;;;;;;;5056729;28;19973;-69
2022/02/04 17:30:57;;;;;;;;;;;;;;;;;;5053194;28;19920;-69
2022/02/04 17:33:22;;;;;;;;;;;;;;;;;;5055242;28;20445;-69
2022/02/04 17:35:47;;;;;;;;;;;;;;;;;;5051744;28;19916;-68
2022/02/04 17:38:12;;;;;;;;;;;;;;;;;;5055441;28;19916;-69
2022/02/04 17:40:37;;;;;;;;;;;;;;;;;;5056922;28;20112;-69
2022/02/04 17:43:03;;;;;;;;;;;;;;;;;;5055888;28;19927;-69
2022/02/04 17:45:28;;;;;;;;;;;;;;;;;;5056442;28;19917;-69
2022/02/04 17:48:02;;;;;;;;;;;;;;;;;;5056514;28;19916;-69
2022/02/04 17:50:32;;;;;;;;;;;;;;;;;;5055324;28;19921;-69
2022/02/04 17:53:20;;;;;;;;;;;;;;;;;;5054770;28;20217;-69
2022/02/04 17:55:52;;;;;;;;;;;;;;;;;;5056051;28;19951;-69
2022/02/04 18:08:29;;;;;;;;;;;;;;;;;;5048542;28;19924;-69
2022/02/04 18:10:54;;;;;;;;;;;;;;;;;;5054415;28;20380;-69
2022/02/04 18:13:19;;;;;;;;;;;;;;;;;;5055415;28;20001;-69
2022/02/04 18:15:46;;;;;;;;;;;;;;;;;;5055062;28;20323;-69
2022/02/04 18:18:11;;;;;;;;;;;;;;;;;;5055293;28;19944;-69
2022/02/04 18:20:36;;;;;;;;;;;;;;;;;;5054709;28;19970;-69
2022/02/04 18:23:01;;;;;;;;;;;;;;;;;;5054387;28;19924;-69
2022/02/04 18:25:26;;;;;;;;;;;;;;;;;;5056057;28;20101;-69
2022/02/04 18:27:52;;;;;;;;;;;;;;;;;;5056140;28;19923;-68
2022/02/04 18:30:17;;;;;;;;;;;;;;;;;;5054567;28;19920;-69
2022/02/04 18:32:46;;;;;;;;;;;;;;;;;;5054892;28;19917;-69
2022/02/04 18:35:11;;;;;;;;;;;;;;;;;;5054088;28;20226;-69
2022/02/04 18:37:41;;;;;;;;;;;;;;;;;;5056508;28;20457;-68
2022/02/04 18:40:28;;;;;;;;;;;;;;;;;;5054157;28;19920;-69
2022/02/04 18:43:11;;;;;;;;;;;;;;;;;;5054398;28;20191;-69
2022/02/04 18:45:43;;;;;;;;;;;;;;;;;;5049096;28;19920;-69
2022/02/04 18:48:14;;;;;;;;;;;;;;;;;;5055358;28;20411;-69
2022/02/04 18:58:36;;;;;;;;;;;;;;;;;;5055161;28;19924;-69
2022/02/04 19:01:01;;;;;;;;;;;;;;;;;;5054508;28;20327;-69
2022/02/04 19:03:35;;;;;;;;;;;;;;;;;;5054149;28;20023;-69
2022/02/04 19:06:12;;;;;;;;;;;;;;;;;;5055090;28;20491;-69
2022/02/04 19:08:49;;;;;;;;;;;;;;;;;;5054677;28;19920;-69
2022/02/04 19:11:18;;;;;;;;;;;;;;;;;;5053211;28;19955;-69
2022/02/04 19:13:55;;;;;;;;;;;;;;;;;;5053992;28;19921;-69
2022/02/04 19:16:37;;;;;;;;;;;;;;;;;;5053644;28;20377;-69
2022/02/04 19:21:46;;;;;;;;;;;;;;;;;;5054164;28;20327;-69
2022/02/04 19:24:13;;;;;;;;;;;;;;;;;;5050463;28;20344;-69
2022/02/04 19:26:38;;;;;;;;;;;;;;;;;;5048817;28;19927;-69
2022/02/04 19:29:03;;;;;;;;;;;;;;;;;;5050319;28;19920;-69
2022/02/04 19:31:30;;;;;;;;;;;;;;;;;;5049943;28;19952;-69
2022/02/04 19:33:55;;;;;;;;;;;;;;;;;;5055036;28;19917;-69
2022/02/04 19:36:21;;;;;;;;;;;;;;;;;;5051469;28;19951;-69
2022/02/04 19:38:47;;;;;;;;;;;;;;;;;;5047838;28;19916;-69
2022/02/04 19:41:17;;;;;;;;;;;;;;;;;;5046888;28;19952;-69
2022/02/04 19:43:45;;;;;;;;;;;;;;;;;;5047613;28;19960;-69
2022/02/04 19:46:14;;;;;;;;;;;;;;;;;;5047766;28;19916;-69
2022/02/04 19:48:46;;;;;;;;;;;;;;;;;;5047251;28;20312;-69
2022/02/04 20:07:33;;;;;;;;;;;;;;;;;;5050161;28;19935;-69
2022/02/04 20:23:38;;;;;;;;;;;;;;;;;;5050658;28;19955;-69
2022/02/04 20:26:04;;;;;;;;;;;;;;;;;;5056694;28;19913;-69
2022/02/04 20:28:29;;;;;;;;;;;;;;;;;;5059863;28;20334;-69
2022/02/04 20:30:54;;;;;;;;;;;;;;;;;;5059557;28;19962;-69
2022/02/04 20:33:19;;;;;;;;;;;;;;;;;;5058496;28;19974;-69
2022/02/04 20:35:44;;;;;;;;;;;;;;;;;;5059676;28;19924;-69
2022/02/04 20:38:14;;;;;;;;;;;;;;;;;;5059041;28;19926;-69
2022/02/04 20:40:39;;;;;;;;;;;;;;;;;;5057630;28;19955;-69
2022/02/04 20:43:05;;;;;;;;;;;;;;;;;;5057232;28;19966;-69
2022/02/04 20:45:30;;;;;;;;;;;;;;;;;;5059561;28;19923;-69
2022/02/04 20:47:56;;;;;;;;;;;;;;;;;;5059904;28;19912;-70
2022/02/04 20:50:22;;;;;;;;;;;;;;;;;;5057633;28;19968;-69
2022/02/04 20:52:47;;;;;;;;;;;;;;;;;;5056998;28;20331;-69
2022/02/04 20:55:12;;;;;;;;;;;;;;;;;;5058418;28;20112;-69
2022/02/04 20:57:40;;;;;;;;;;;;;;;;;;5056895;28;19916;-69
2022/02/04 21:00:05;;;;;;;;;;;;;;;;;;5053522;28;20010;-69
2022/02/04 21:02:30;;;;;;;;;;;;;;;;;;5058264;28;20011;-69
2022/02/04 21:04:55;;;;;;;;;;;;;;;;;;5057648;28;20016;-69
2022/02/04 21:15:34;;;;;;;;;;;;;;;;;;4990770;28;20067;-69
2022/02/04 21:18:03;;;;;;;;;;;;;;;;;;4998863;28;20201;-69
2022/02/04 21:20:28;;;;;;;;;;;;;;;;;;4996496;28;20274;-68
2022/02/04 21:22:53;;;;;;;;;;;;;;;;;;4998107;28;19940;-69
2022/02/04 21:25:18;;;;;;;;;;;;;;;;;;4993187;28;20001;-69
2022/02/04 21:27:44;;;;;;;;;;;;;;;;;;4993782;28;19976;-69
2022/02/04 21:30:09;;;;;;;;;;;;;;;;;;4993445;28;20217;-69
2022/02/04 21:32:39;;;;;;;;;;;;;;;;;;4995229;28;20190;-69
2022/02/04 21:37:48;;;;;;;;;;;;;;;;;;4993339;28;21251;-69
2022/02/04 21:40:13;;;;;;;;;;;;;;;;;;4996409;28;20493;-69
2022/02/04 21:42:38;;;;;;;;;;;;;;;;;;4996356;28;19928;-69
2022/02/04 21:45:05;;;;;;;;;;;;;;;;;;4993263;28;20171;-69
2022/02/04 21:47:35;;;;;;;;;;;;;;;;;;5033397;28;20481;-69
2022/02/04 21:50:03;;;;;;;;;;;;;;;;;;5056209;28;19952;-69
2022/02/04 21:52:28;;;;;;;;;;;;;;;;;;5057519;28;19912;-69
2022/02/04 21:54:53;;;;;;;;;;;;;;;;;;5058009;28;19974;-69
2022/02/04 21:57:18;;;;;;;;;;;;;;;;;;5064288;28;19974;-69
2022/02/04 21:59:43;;;;;;;;;;;;;;;;;;5058863;28;19959;-69
2022/02/04 22:02:09;;;;;;;;;;;;;;;;;;5053318;28;19920;-69
2022/02/04 22:04:34;;;;;;;;;;;;;;;;;;5052846;28;20388;-69
2022/02/04 22:06:59;;;;;;;;;;;;;;;;;;5052322;28;19962;-69
2022/02/04 22:14:58;;;;;;;;;;;;;;;;;;5051617;28;20029;-69
2022/02/04 22:22:34;;;;;;;;;;;;;;;;;;5069412;28;19923;-69
2022/02/04 22:24:59;;;;;;;;;;;;;;;;;;5066308;28;19920;-69
2022/02/04 22:27:24;;;;;;;;;;;;;;;;;;5058372;28;19935;-69
2022/02/04 22:32:32;;;;;;;;;;;;;;;;;;5061264;28;19912;-69
2022/02/04 22:40:19;;;;;;;;;;;;;;;;;;5054485;28;20439;-69
2022/02/04 22:58:37;;;;;;;;;;;;;;;;;;4951931;28;19915;-69
2022/02/04 23:01:03;;;;;;;;;;;;;;;;;;4948279;28;19929;-69
2022/02/04 23:03:33;;;;;;;;;;;;;;;;;;4949506;28;19918;-69
2022/02/04 23:05:58;;;;;;;;;;;;;;;;;;4951651;28;19922;-69
2022/02/04 23:08:27;;;;;;;;;;;;;;;;;;4955412;28;20362;-69
2022/02/04 23:10:52;;;;;;;;;;;;;;;;;;4954546;28;19954;-69
2022/02/04 23:15:49;;;;;;;;;;;;;;;;;;4955001;28;20330;-69
2022/02/04 23:18:20;;;;;;;;;;;;;;;;;;4954442;28;20379;-69
2022/02/04 23:20:49;;;;;;;;;;;;;;;;;;4953705;28;20688;-69
2022/02/04 23:23:15;;;;;;;;;;;;;;;;;;4955048;28;19914;-69
2022/02/04 23:25:49;;;;;;;;;;;;;;;;;;4993292;28;19913;-69
2022/02/04 23:37:25;;;;;;;;;;;;;;;;;;5050102;28;19927;-69
2022/02/04 23:52:18;;;;;;;;;;;;;;;;;;5060037;28;19920;-69
2022/02/04 23:54:44;;;;;;;;;;;;;;;;;;5056656;28;19912;-69
2022/02/04 23:57:10;;;;;;;;;;;;;;;;;;5059231;28;19912;-69
